sensor_id;sensor_type;location;lat;lon;timestamp;temperature;humidity
17813;DHT22;9030;50.792;8.320;2023-12-20T00:02:03;4.90;99.90
17813;DHT22;9030;50.792;8.320;2023-12-20T00:04:30;4.90;99.90
17813;DHT22;9030;50.792;8.320;2023-12-20T00:06:57;4.90;99.90
17813;DHT22;9030;50.792;8.320;2023-12-20T00:09:23;4.90;99.90
17813;DHT22;9030;50.792;8.320;2023-12-20T00:11:50;5.00;99.90
17813;DHT22;9030;50.792;8.320;2023-12-20T00:14:16;5.00;99.90
17813;DHT22;9030;50.792;8.320;2023-12-20T00:16:44;4.90;99.90
17813;DHT22;9030;50.792;8.320;2023-12-20T00:19:11;4.90;99.90
17813;DHT22;9030;50.792;8.320;2023-12-20T00:21:37;4.90;99.90
17813;DHT22;9030;50.792;8.320;2023-12-20T00:24:05;4.90;99.90
17813;DHT22;9030;50.792;8.320;2023-12-20T00:26:31;4.90;99.90
17813;DHT22;9030;50.792;8.320;2023-12-20T00:28:58;4.90;99.90
17813;DHT22;9030;50.792;8.320;2023-12-20T00:31:25;4.90;99.90
17813;DHT22;9030;50.792;8.320;2023-12-20T00:33:53;4.90;99.90
17813;DHT22;9030;50.792;8.320;2023-12-20T00:36:20;4.90;99.90
17813;DHT22;9030;50.792;8.320;2023-12-20T00:38:46;4.90;99.90
17813;DHT22;9030;50.792;8.320;2023-12-20T00:41:13;4.90;99.90
17813;DHT22;9030;50.792;8.320;2023-12-20T00:43:39;4.90;99.90
17813;DHT22;9030;50.792;8.320;2023-12-20T00:46:06;4.90;99.90
17813;DHT22;9030;50.792;8.320;2023-12-20T00:48:33;5.00;99.90
17813;DHT22;9030;50.792;8.320;2023-12-20T00:51:01;5.00;99.90
17813;DHT22;9030;50.792;8.320;2023-12-20T00:53:28;5.00;99.90
17813;DHT22;9030;50.792;8.320;2023-12-20T00:55:54;5.00;99.90
17813;DHT22;9030;50.792;8.320;2023-12-20T00:58:21;5.00;99.90
17813;DHT22;9030;50.792;8.320;2023-12-20T01:00:48;5.00;99.90
17813;DHT22;9030;50.792;8.320;2023-12-20T01:03:14;5.00;99.90
17813;DHT22;9030;50.792;8.320;2023-12-20T01:05:41;5.00;99.90
17813;DHT22;9030;50.792;8.320;2023-12-20T01:08:09;5.00;99.90
17813;DHT22;9030;50.792;8.320;2023-12-20T01:10:35;5.00;99.90
17813;DHT22;9030;50.792;8.320;2023-12-20T01:13:02;5.00;99.90
17813;DHT22;9030;50.792;8.320;2023-12-20T01:15:29;5.00;99.90
17813;DHT22;9030;50.792;8.320;2023-12-20T01:17:55;5.10;99.90
17813;DHT22;9030;50.792;8.320;2023-12-20T01:20:24;5.00;99.90
17813;DHT22;9030;50.792;8.320;2023-12-20T01:22:51;5.00;99.90
17813;DHT22;9030;50.792;8.320;2023-12-20T01:25:19;5.00;99.90
17813;DHT22;9030;50.792;8.320;2023-12-20T01:27:46;5.00;99.90
17813;DHT22;9030;50.792;8.320;2023-12-20T01:30:13;5.00;99.90
17813;DHT22;9030;50.792;8.320;2023-12-20T01:32:40;5.10;99.90
17813;DHT22;9030;50.792;8.320;2023-12-20T01:35:07;5.10;99.90
17813;DHT22;9030;50.792;8.320;2023-12-20T01:37:34;5.10;99.90
17813;DHT22;9030;50.792;8.320;2023-12-20T01:40:00;5.10;99.90
17813;DHT22;9030;50.792;8.320;2023-12-20T01:42:29;5.10;99.90
17813;DHT22;9030;50.792;8.320;2023-12-20T01:44:55;5.20;99.90
17813;DHT22;9030;50.792;8.320;2023-12-20T01:47:22;5.20;99.90
17813;DHT22;9030;50.792;8.320;2023-12-20T01:49:49;5.10;99.90
17813;DHT22;9030;50.792;8.320;2023-12-20T01:52:16;5.20;99.90
17813;DHT22;9030;50.792;8.320;2023-12-20T01:54:43;5.20;99.90
17813;DHT22;9030;50.792;8.320;2023-12-20T01:57:10;5.20;99.90
17813;DHT22;9030;50.792;8.320;2023-12-20T01:59:39;5.20;99.90
17813;DHT22;9030;50.792;8.320;2023-12-20T02:02:07;5.20;99.90
17813;DHT22;9030;50.792;8.320;2023-12-20T02:04:34;5.20;99.90
17813;DHT22;9030;50.792;8.320;2023-12-20T02:07:02;5.20;99.90
17813;DHT22;9030;50.792;8.320;2023-12-20T02:09:29;5.20;99.90
17813;DHT22;9030;50.792;8.320;2023-12-20T02:11:56;5.30;99.90
17813;DHT22;9030;50.792;8.320;2023-12-20T02:14:23;5.30;99.90
17813;DHT22;9030;50.792;8.320;2023-12-20T02:16:51;5.30;99.90
17813;DHT22;9030;50.792;8.320;2023-12-20T02:19:18;5.30;99.90
17813;DHT22;9030;50.792;8.320;2023-12-20T02:21:47;5.30;99.90
17813;DHT22;9030;50.792;8.320;2023-12-20T02:24:14;5.30;99.90
17813;DHT22;9030;50.792;8.320;2023-12-20T02:26:40;5.30;99.90
17813;DHT22;9030;50.792;8.320;2023-12-20T02:29:07;5.30;99.90
17813;DHT22;9030;50.792;8.320;2023-12-20T02:31:34;5.50;99.90
17813;DHT22;9030;50.792;8.320;2023-12-20T02:34:01;5.70;99.90
17813;DHT22;9030;50.792;8.320;2023-12-20T02:36:27;5.70;99.90
17813;DHT22;9030;50.792;8.320;2023-12-20T02:38:55;5.70;99.90
17813;DHT22;9030;50.792;8.320;2023-12-20T02:41:22;5.60;99.90
17813;DHT22;9030;50.792;8.320;2023-12-20T02:43:49;5.70;99.90
17813;DHT22;9030;50.792;8.320;2023-12-20T02:46:16;5.60;99.90
17813;DHT22;9030;50.792;8.320;2023-12-20T02:48:43;5.60;99.90
17813;DHT22;9030;50.792;8.320;2023-12-20T02:51:10;5.50;99.90
17813;DHT22;9030;50.792;8.320;2023-12-20T02:53:36;5.50;99.90
17813;DHT22;9030;50.792;8.320;2023-12-20T02:56:05;5.50;99.90
17813;DHT22;9030;50.792;8.320;2023-12-20T02:58:32;5.40;99.90
17813;DHT22;9030;50.792;8.320;2023-12-20T03:00:58;5.30;99.90
17813;DHT22;9030;50.792;8.320;2023-12-20T03:03:25;5.20;99.90
17813;DHT22;9030;50.792;8.320;2023-12-20T03:05:51;5.20;99.90
17813;DHT22;9030;50.792;8.320;2023-12-20T03:08:18;5.00;99.90
17813;DHT22;9030;50.792;8.320;2023-12-20T03:10:45;4.90;99.90
17813;DHT22;9030;50.792;8.320;2023-12-20T03:13:13;5.10;99.90
17813;DHT22;9030;50.792;8.320;2023-12-20T03:15:39;5.10;99.90
17813;DHT22;9030;50.792;8.320;2023-12-20T03:18:06;5.00;99.90
17813;DHT22;9030;50.792;8.320;2023-12-20T03:20:33;5.00;99.90
17813;DHT22;9030;50.792;8.320;2023-12-20T03:22:59;5.00;99.90
17813;DHT22;9030;50.792;8.320;2023-12-20T03:25:26;5.00;99.90
17813;DHT22;9030;50.792;8.320;2023-12-20T03:27:53;5.00;99.90
17813;DHT22;9030;50.792;8.320;2023-12-20T03:30:21;5.00;99.90
17813;DHT22;9030;50.792;8.320;2023-12-20T03:32:48;5.00;99.90
17813;DHT22;9030;50.792;8.320;2023-12-20T03:35:14;5.00;99.90
17813;DHT22;9030;50.792;8.320;2023-12-20T03:37:41;5.00;99.90
17813;DHT22;9030;50.792;8.320;2023-12-20T03:40:08;5.00;99.90
17813;DHT22;9030;50.792;8.320;2023-12-20T03:42:35;5.10;99.90
17813;DHT22;9030;50.792;8.320;2023-12-20T03:45:02;5.10;99.90
17813;DHT22;9030;50.792;8.320;2023-12-20T03:47:30;5.10;99.90
17813;DHT22;9030;50.792;8.320;2023-12-20T03:49:56;5.00;99.90
17813;DHT22;9030;50.792;8.320;2023-12-20T03:52:23;5.00;99.90
17813;DHT22;9030;50.792;8.320;2023-12-20T03:54:49;4.90;99.90
17813;DHT22;9030;50.792;8.320;2023-12-20T03:57:16;4.80;99.90
17813;DHT22;9030;50.792;8.320;2023-12-20T03:59:43;4.70;99.90
17813;DHT22;9030;50.792;8.320;2023-12-20T04:02:09;4.60;99.90
17813;DHT22;9030;50.792;8.320;2023-12-20T04:04:37;4.50;99.90
17813;DHT22;9030;50.792;8.320;2023-12-20T04:07:04;4.50;99.90
17813;DHT22;9030;50.792;8.320;2023-12-20T04:09:30;4.60;99.90
17813;DHT22;9030;50.792;8.320;2023-12-20T04:11:57;4.50;99.90
17813;DHT22;9030;50.792;8.320;2023-12-20T04:14:23;4.50;99.90
17813;DHT22;9030;50.792;8.320;2023-12-20T04:16:51;4.50;99.90
17813;DHT22;9030;50.792;8.320;2023-12-20T04:19:17;4.40;99.90
17813;DHT22;9030;50.792;8.320;2023-12-20T04:21:45;4.40;99.90
17813;DHT22;9030;50.792;8.320;2023-12-20T04:24:12;4.30;99.90
17813;DHT22;9030;50.792;8.320;2023-12-20T04:26:38;4.20;99.90
17813;DHT22;9030;50.792;8.320;2023-12-20T04:29:05;4.30;99.90
17813;DHT22;9030;50.792;8.320;2023-12-20T04:31:32;4.20;99.90
17813;DHT22;9030;50.792;8.320;2023-12-20T04:33:58;4.10;99.90
17813;DHT22;9030;50.792;8.320;2023-12-20T04:36:25;4.10;99.90
17813;DHT22;9030;50.792;8.320;2023-12-20T04:38:54;4.20;99.90
17813;DHT22;9030;50.792;8.320;2023-12-20T04:41:21;4.20;99.90
17813;DHT22;9030;50.792;8.320;2023-12-20T04:43:47;4.30;99.90
17813;DHT22;9030;50.792;8.320;2023-12-20T04:46:14;4.20;99.90
17813;DHT22;9030;50.792;8.320;2023-12-20T04:48:40;4.30;99.90
17813;DHT22;9030;50.792;8.320;2023-12-20T04:51:07;4.30;99.90
17813;DHT22;9030;50.792;8.320;2023-12-20T04:53:34;4.30;99.90
17813;DHT22;9030;50.792;8.320;2023-12-20T04:56:02;4.30;99.90
17813;DHT22;9030;50.792;8.320;2023-12-20T04:58:29;4.20;99.90
17813;DHT22;9030;50.792;8.320;2023-12-20T05:00:55;4.30;99.90
17813;DHT22;9030;50.792;8.320;2023-12-20T05:03:22;4.20;99.90
17813;DHT22;9030;50.792;8.320;2023-12-20T05:05:48;4.20;99.90
17813;DHT22;9030;50.792;8.320;2023-12-20T05:08:15;4.20;99.90
17813;DHT22;9030;50.792;8.320;2023-12-20T05:10:42;4.20;99.90
17813;DHT22;9030;50.792;8.320;2023-12-20T05:13:10;4.20;99.90
17813;DHT22;9030;50.792;8.320;2023-12-20T05:15:36;4.30;99.90
17813;DHT22;9030;50.792;8.320;2023-12-20T05:18:03;4.20;99.90
17813;DHT22;9030;50.792;8.320;2023-12-20T05:20:30;4.20;99.90
17813;DHT22;9030;50.792;8.320;2023-12-20T05:22:57;4.20;99.90
17813;DHT22;9030;50.792;8.320;2023-12-20T05:25:23;4.20;99.90
17813;DHT22;9030;50.792;8.320;2023-12-20T05:27:50;4.20;99.90
17813;DHT22;9030;50.792;8.320;2023-12-20T05:30:18;4.20;99.90
17813;DHT22;9030;50.792;8.320;2023-12-20T05:32:45;4.20;99.90
17813;DHT22;9030;50.792;8.320;2023-12-20T05:35:12;4.20;99.90
17813;DHT22;9030;50.792;8.320;2023-12-20T05:37:38;4.20;99.90
17813;DHT22;9030;50.792;8.320;2023-12-20T05:40:06;4.20;99.90
17813;DHT22;9030;50.792;8.320;2023-12-20T05:42:35;4.20;99.90
17813;DHT22;9030;50.792;8.320;2023-12-20T05:45:02;4.20;99.90
17813;DHT22;9030;50.792;8.320;2023-12-20T05:47:30;4.20;99.90
17813;DHT22;9030;50.792;8.320;2023-12-20T05:49:57;4.20;99.90
17813;DHT22;9030;50.792;8.320;2023-12-20T05:52:24;4.20;99.90
17813;DHT22;9030;50.792;8.320;2023-12-20T05:54:50;4.20;99.90
17813;DHT22;9030;50.792;8.320;2023-12-20T05:57:17;4.20;99.90
17813;DHT22;9030;50.792;8.320;2023-12-20T05:59:44;4.20;99.90
17813;DHT22;9030;50.792;8.320;2023-12-20T06:02:10;4.20;99.90
17813;DHT22;9030;50.792;8.320;2023-12-20T06:04:42;4.20;99.90
17813;DHT22;9030;50.792;8.320;2023-12-20T06:07:08;4.20;99.90
17813;DHT22;9030;50.792;8.320;2023-12-20T06:09:38;4.20;99.90
17813;DHT22;9030;50.792;8.320;2023-12-20T06:12:05;4.20;99.90
17813;DHT22;9030;50.792;8.320;2023-12-20T06:14:31;4.20;99.90
17813;DHT22;9030;50.792;8.320;2023-12-20T06:16:57;4.20;99.90
17813;DHT22;9030;50.792;8.320;2023-12-20T06:19:24;4.20;99.90
17813;DHT22;9030;50.792;8.320;2023-12-20T06:21:52;4.20;99.90
17813;DHT22;9030;50.792;8.320;2023-12-20T06:24:18;4.10;99.90
17813;DHT22;9030;50.792;8.320;2023-12-20T06:26:45;4.10;99.90
17813;DHT22;9030;50.792;8.320;2023-12-20T06:29:12;4.10;99.90
17813;DHT22;9030;50.792;8.320;2023-12-20T06:31:38;4.10;99.90
17813;DHT22;9030;50.792;8.320;2023-12-20T06:34:05;4.10;99.90
17813;DHT22;9030;50.792;8.320;2023-12-20T06:36:32;4.10;99.90
17813;DHT22;9030;50.792;8.320;2023-12-20T06:39:01;4.20;99.90
17813;DHT22;9030;50.792;8.320;2023-12-20T06:41:28;4.20;99.90
17813;DHT22;9030;50.792;8.320;2023-12-20T06:43:54;4.10;99.90
17813;DHT22;9030;50.792;8.320;2023-12-20T06:46:21;4.10;99.90
17813;DHT22;9030;50.792;8.320;2023-12-20T06:48:48;4.10;99.90
17813;DHT22;9030;50.792;8.320;2023-12-20T06:51:18;4.20;99.90
17813;DHT22;9030;50.792;8.320;2023-12-20T06:53:50;4.20;99.90
17813;DHT22;9030;50.792;8.320;2023-12-20T06:56:18;4.20;99.90
17813;DHT22;9030;50.792;8.320;2023-12-20T06:58:45;4.20;99.90
17813;DHT22;9030;50.792;8.320;2023-12-20T07:01:12;4.30;99.90
17813;DHT22;9030;50.792;8.320;2023-12-20T07:03:38;4.30;99.90
17813;DHT22;9030;50.792;8.320;2023-12-20T07:06:05;4.30;99.90
17813;DHT22;9030;50.792;8.320;2023-12-20T07:08:32;4.20;99.90
17813;DHT22;9030;50.792;8.320;2023-12-20T07:10:58;4.30;99.90
17813;DHT22;9030;50.792;8.320;2023-12-20T07:13:27;4.30;99.90
17813;DHT22;9030;50.792;8.320;2023-12-20T07:15:53;4.30;99.90
17813;DHT22;9030;50.792;8.320;2023-12-20T07:18:20;4.30;99.90
17813;DHT22;9030;50.792;8.320;2023-12-20T07:20:46;4.30;99.90
17813;DHT22;9030;50.792;8.320;2023-12-20T07:23:13;4.30;99.90
17813;DHT22;9030;50.792;8.320;2023-12-20T07:25:40;4.40;99.90
17813;DHT22;9030;50.792;8.320;2023-12-20T07:28:06;4.40;99.90
17813;DHT22;9030;50.792;8.320;2023-12-20T07:30:34;4.40;99.90
17813;DHT22;9030;50.792;8.320;2023-12-20T07:33:01;4.40;99.90
17813;DHT22;9030;50.792;8.320;2023-12-20T07:35:28;4.40;99.90
17813;DHT22;9030;50.792;8.320;2023-12-20T07:37:55;4.40;99.90
17813;DHT22;9030;50.792;8.320;2023-12-20T07:40:21;4.40;99.90
17813;DHT22;9030;50.792;8.320;2023-12-20T07:42:49;4.40;99.90
17813;DHT22;9030;50.792;8.320;2023-12-20T07:45:16;4.40;99.90
17813;DHT22;9030;50.792;8.320;2023-12-20T07:47:44;4.40;99.90
17813;DHT22;9030;50.792;8.320;2023-12-20T07:50:10;4.40;99.90
17813;DHT22;9030;50.792;8.320;2023-12-20T07:52:37;4.40;99.90
17813;DHT22;9030;50.792;8.320;2023-12-20T07:55:04;4.40;99.90
17813;DHT22;9030;50.792;8.320;2023-12-20T07:57:31;4.40;99.90
17813;DHT22;9030;50.792;8.320;2023-12-20T07:59:57;4.40;99.90
17813;DHT22;9030;50.792;8.320;2023-12-20T08:02:24;4.40;99.90
17813;DHT22;9030;50.792;8.320;2023-12-20T08:04:52;4.40;99.90
17813;DHT22;9030;50.792;8.320;2023-12-20T08:07:19;4.40;99.90
17813;DHT22;9030;50.792;8.320;2023-12-20T08:09:45;4.40;99.90
17813;DHT22;9030;50.792;8.320;2023-12-20T08:12:12;4.40;99.90
17813;DHT22;9030;50.792;8.320;2023-12-20T08:14:39;4.50;99.90
17813;DHT22;9030;50.792;8.320;2023-12-20T08:17:05;4.50;99.90
17813;DHT22;9030;50.792;8.320;2023-12-20T08:19:32;4.50;99.90
17813;DHT22;9030;50.792;8.320;2023-12-20T08:22:00;4.40;99.90
17813;DHT22;9030;50.792;8.320;2023-12-20T08:24:26;4.40;99.90
17813;DHT22;9030;50.792;8.320;2023-12-20T08:26:53;4.40;99.90
17813;DHT22;9030;50.792;8.320;2023-12-20T08:29:19;4.50;99.90
17813;DHT22;9030;50.792;8.320;2023-12-20T08:31:46;4.50;99.90
17813;DHT22;9030;50.792;8.320;2023-12-20T08:34:13;4.50;99.90
17813;DHT22;9030;50.792;8.320;2023-12-20T08:36:40;4.50;99.90
17813;DHT22;9030;50.792;8.320;2023-12-20T08:39:08;4.50;99.90
17813;DHT22;9030;50.792;8.320;2023-12-20T08:41:35;4.50;99.90
17813;DHT22;9030;50.792;8.320;2023-12-20T08:44:02;4.50;99.90
17813;DHT22;9030;50.792;8.320;2023-12-20T08:46:29;4.60;99.90
17813;DHT22;9030;50.792;8.320;2023-12-20T08:48:56;4.60;99.90
17813;DHT22;9030;50.792;8.320;2023-12-20T08:51:22;4.60;99.90
17813;DHT22;9030;50.792;8.320;2023-12-20T08:53:51;4.60;99.90
17813;DHT22;9030;50.792;8.320;2023-12-20T08:56:19;4.60;99.90
17813;DHT22;9030;50.792;8.320;2023-12-20T08:58:46;4.60;99.90
17813;DHT22;9030;50.792;8.320;2023-12-20T09:01:13;4.60;99.90
17813;DHT22;9030;50.792;8.320;2023-12-20T09:03:39;4.60;99.90
17813;DHT22;9030;50.792;8.320;2023-12-20T09:06:06;4.60;99.90
17813;DHT22;9030;50.792;8.320;2023-12-20T09:08:33;4.60;99.90
17813;DHT22;9030;50.792;8.320;2023-12-20T09:11:00;4.60;99.90
17813;DHT22;9030;50.792;8.320;2023-12-20T09:13:28;4.60;99.90
17813;DHT22;9030;50.792;8.320;2023-12-20T09:15:54;4.60;99.90
17813;DHT22;9030;50.792;8.320;2023-12-20T09:18:21;4.60;99.90
17813;DHT22;9030;50.792;8.320;2023-12-20T09:20:48;4.60;99.90
17813;DHT22;9030;50.792;8.320;2023-12-20T09:23:14;4.60;99.90
17813;DHT22;9030;50.792;8.320;2023-12-20T09:25:42;4.70;99.90
17813;DHT22;9030;50.792;8.320;2023-12-20T09:28:09;4.60;99.90
17813;DHT22;9030;50.792;8.320;2023-12-20T09:30:37;4.60;99.90
17813;DHT22;9030;50.792;8.320;2023-12-20T09:33:05;4.70;99.90
17813;DHT22;9030;50.792;8.320;2023-12-20T09:35:32;4.60;99.90
17813;DHT22;9030;50.792;8.320;2023-12-20T09:37:59;4.60;99.90
17813;DHT22;9030;50.792;8.320;2023-12-20T09:40:26;4.60;99.90
17813;DHT22;9030;50.792;8.320;2023-12-20T09:42:57;4.70;99.90
17813;DHT22;9030;50.792;8.320;2023-12-20T09:45:24;4.70;99.90
17813;DHT22;9030;50.792;8.320;2023-12-20T09:47:53;4.70;99.90
17813;DHT22;9030;50.792;8.320;2023-12-20T09:50:21;4.70;99.90
17813;DHT22;9030;50.792;8.320;2023-12-20T09:52:50;4.60;99.90
17813;DHT22;9030;50.792;8.320;2023-12-20T09:55:17;4.70;99.90
17813;DHT22;9030;50.792;8.320;2023-12-20T09:57:44;4.60;99.90
17813;DHT22;9030;50.792;8.320;2023-12-20T10:00:12;4.60;99.90
17813;DHT22;9030;50.792;8.320;2023-12-20T10:02:45;4.60;99.90
17813;DHT22;9030;50.792;8.320;2023-12-20T10:05:17;4.70;99.90
17813;DHT22;9030;50.792;8.320;2023-12-20T10:07:45;4.70;99.90
17813;DHT22;9030;50.792;8.320;2023-12-20T10:10:13;4.60;99.90
17813;DHT22;9030;50.792;8.320;2023-12-20T10:12:40;4.60;99.90
17813;DHT22;9030;50.792;8.320;2023-12-20T10:15:07;4.60;99.90
17813;DHT22;9030;50.792;8.320;2023-12-20T10:17:35;4.70;99.90
17813;DHT22;9030;50.792;8.320;2023-12-20T10:20:03;4.70;99.90
17813;DHT22;9030;50.792;8.320;2023-12-20T10:22:36;4.60;99.90
17813;DHT22;9030;50.792;8.320;2023-12-20T10:25:04;4.60;99.90
17813;DHT22;9030;50.792;8.320;2023-12-20T10:27:30;4.60;99.90
17813;DHT22;9030;50.792;8.320;2023-12-20T10:29:58;4.60;99.90
17813;DHT22;9030;50.792;8.320;2023-12-20T10:32:26;4.60;99.90
17813;DHT22;9030;50.792;8.320;2023-12-20T10:34:54;4.60;99.90
17813;DHT22;9030;50.792;8.320;2023-12-20T10:37:21;4.60;99.90
17813;DHT22;9030;50.792;8.320;2023-12-20T10:39:50;4.60;99.90
17813;DHT22;9030;50.792;8.320;2023-12-20T10:42:20;4.60;99.90
17813;DHT22;9030;50.792;8.320;2023-12-20T10:44:47;4.60;99.90
17813;DHT22;9030;50.792;8.320;2023-12-20T10:47:15;4.60;99.90
17813;DHT22;9030;50.792;8.320;2023-12-20T10:49:43;4.60;99.90
17813;DHT22;9030;50.792;8.320;2023-12-20T10:52:11;4.60;99.90
17813;DHT22;9030;50.792;8.320;2023-12-20T10:54:38;4.60;99.90
17813;DHT22;9030;50.792;8.320;2023-12-20T10:57:07;4.60;99.90
17813;DHT22;9030;50.792;8.320;2023-12-20T10:59:36;4.60;99.90
17813;DHT22;9030;50.792;8.320;2023-12-20T11:02:04;4.60;99.90
17813;DHT22;9030;50.792;8.320;2023-12-20T11:04:39;4.60;99.90
17813;DHT22;9030;50.792;8.320;2023-12-20T11:07:17;4.60;99.90
17813;DHT22;9030;50.792;8.320;2023-12-20T11:09:50;4.60;99.90
17813;DHT22;9030;50.792;8.320;2023-12-20T11:12:36;4.70;99.90
17813;DHT22;9030;50.792;8.320;2023-12-20T11:15:04;4.70;99.90
17813;DHT22;9030;50.792;8.320;2023-12-20T11:17:32;4.70;99.90
17813;DHT22;9030;50.792;8.320;2023-12-20T11:20:09;4.70;99.90
17813;DHT22;9030;50.792;8.320;2023-12-20T11:22:38;4.70;99.90
17813;DHT22;9030;50.792;8.320;2023-12-20T11:25:08;4.70;99.90
17813;DHT22;9030;50.792;8.320;2023-12-20T11:27:40;4.70;99.90
17813;DHT22;9030;50.792;8.320;2023-12-20T11:30:08;4.70;99.90
17813;DHT22;9030;50.792;8.320;2023-12-20T11:32:35;4.70;99.90
17813;DHT22;9030;50.792;8.320;2023-12-20T11:35:17;4.70;99.90
17813;DHT22;9030;50.792;8.320;2023-12-20T11:37:45;4.70;99.90
17813;DHT22;9030;50.792;8.320;2023-12-20T11:40:14;4.70;99.90
17813;DHT22;9030;50.792;8.320;2023-12-20T11:42:43;4.70;99.90
17813;DHT22;9030;50.792;8.320;2023-12-20T11:45:11;4.70;99.90
17813;DHT22;9030;50.792;8.320;2023-12-20T11:47:40;4.70;99.90
17813;DHT22;9030;50.792;8.320;2023-12-20T11:50:07;4.70;99.90
17813;DHT22;9030;50.792;8.320;2023-12-20T11:52:33;4.70;99.90
17813;DHT22;9030;50.792;8.320;2023-12-20T11:55:00;4.70;99.90
17813;DHT22;9030;50.792;8.320;2023-12-20T11:57:26;4.70;99.90
17813;DHT22;9030;50.792;8.320;2023-12-20T11:59:54;4.80;99.90
17813;DHT22;9030;50.792;8.320;2023-12-20T12:02:21;4.80;99.90
17813;DHT22;9030;50.792;8.320;2023-12-20T12:04:49;4.80;99.90
17813;DHT22;9030;50.792;8.320;2023-12-20T12:07:16;4.80;99.90
17813;DHT22;9030;50.792;8.320;2023-12-20T12:09:43;4.70;99.90
17813;DHT22;9030;50.792;8.320;2023-12-20T12:12:10;4.80;99.90
17813;DHT22;9030;50.792;8.320;2023-12-20T12:14:37;4.80;99.90
17813;DHT22;9030;50.792;8.320;2023-12-20T12:17:10;4.80;99.90
17813;DHT22;9030;50.792;8.320;2023-12-20T12:19:36;4.70;99.90
17813;DHT22;9030;50.792;8.320;2023-12-20T12:22:06;4.70;99.90
17813;DHT22;9030;50.792;8.320;2023-12-20T12:24:35;4.80;99.90
17813;DHT22;9030;50.792;8.320;2023-12-20T12:27:02;4.80;99.90
17813;DHT22;9030;50.792;8.320;2023-12-20T12:29:29;4.80;99.90
17813;DHT22;9030;50.792;8.320;2023-12-20T12:31:56;4.80;99.90
17813;DHT22;9030;50.792;8.320;2023-12-20T12:34:24;4.80;99.90
17813;DHT22;9030;50.792;8.320;2023-12-20T12:36:53;4.80;99.90
17813;DHT22;9030;50.792;8.320;2023-12-20T12:39:20;4.80;99.90
17813;DHT22;9030;50.792;8.320;2023-12-20T12:41:46;4.80;99.90
17813;DHT22;9030;50.792;8.320;2023-12-20T12:44:13;4.70;99.90
17813;DHT22;9030;50.792;8.320;2023-12-20T12:46:40;4.80;99.90
17813;DHT22;9030;50.792;8.320;2023-12-20T12:49:06;4.80;99.90
17813;DHT22;9030;50.792;8.320;2023-12-20T12:51:39;4.70;99.90
17813;DHT22;9030;50.792;8.320;2023-12-20T12:54:09;4.70;99.90
17813;DHT22;9030;50.792;8.320;2023-12-20T12:56:38;4.80;99.90
17813;DHT22;9030;50.792;8.320;2023-12-20T12:59:05;4.80;99.90
17813;DHT22;9030;50.792;8.320;2023-12-20T13:01:32;4.80;99.90
17813;DHT22;9030;50.792;8.320;2023-12-20T13:03:59;4.80;99.90
17813;DHT22;9030;50.792;8.320;2023-12-20T13:06:26;4.80;99.90
17813;DHT22;9030;50.792;8.320;2023-12-20T13:08:54;4.80;99.90
17813;DHT22;9030;50.792;8.320;2023-12-20T13:11:21;4.90;99.90
17813;DHT22;9030;50.792;8.320;2023-12-20T13:13:48;4.90;99.90
17813;DHT22;9030;50.792;8.320;2023-12-20T13:16:14;4.90;99.90
17813;DHT22;9030;50.792;8.320;2023-12-20T13:18:41;4.90;99.90
17813;DHT22;9030;50.792;8.320;2023-12-20T13:21:08;5.00;99.90
17813;DHT22;9030;50.792;8.320;2023-12-20T13:23:35;5.00;99.90
17813;DHT22;9030;50.792;8.320;2023-12-20T13:26:03;5.00;99.90
17813;DHT22;9030;50.792;8.320;2023-12-20T13:28:30;5.00;99.90
17813;DHT22;9030;50.792;8.320;2023-12-20T13:30:56;5.00;99.90
17813;DHT22;9030;50.792;8.320;2023-12-20T13:33:22;5.00;99.90
17813;DHT22;9030;50.792;8.320;2023-12-20T13:35:49;5.00;99.90
17813;DHT22;9030;50.792;8.320;2023-12-20T13:38:15;4.90;99.90
17813;DHT22;9030;50.792;8.320;2023-12-20T13:40:42;4.90;99.90
17813;DHT22;9030;50.792;8.320;2023-12-20T13:43:10;4.90;99.90
17813;DHT22;9030;50.792;8.320;2023-12-20T13:45:38;4.90;99.90
17813;DHT22;9030;50.792;8.320;2023-12-20T13:48:05;4.90;99.90
17813;DHT22;9030;50.792;8.320;2023-12-20T13:50:32;4.90;99.90
17813;DHT22;9030;50.792;8.320;2023-12-20T13:52:58;4.90;99.90
17813;DHT22;9030;50.792;8.320;2023-12-20T13:55:26;4.90;99.90
17813;DHT22;9030;50.792;8.320;2023-12-20T13:57:53;5.00;99.90
17813;DHT22;9030;50.792;8.320;2023-12-20T14:00:20;4.90;99.90
17813;DHT22;9030;50.792;8.320;2023-12-20T14:02:47;4.90;99.90
17813;DHT22;9030;50.792;8.320;2023-12-20T14:05:15;4.90;99.90
17813;DHT22;9030;50.792;8.320;2023-12-20T14:07:43;4.90;99.90
17813;DHT22;9030;50.792;8.320;2023-12-20T14:10:11;4.90;99.90
17813;DHT22;9030;50.792;8.320;2023-12-20T14:12:38;4.90;99.90
17813;DHT22;9030;50.792;8.320;2023-12-20T14:15:06;4.90;99.90
17813;DHT22;9030;50.792;8.320;2023-12-20T14:17:37;4.90;99.90
17813;DHT22;9030;50.792;8.320;2023-12-20T14:20:05;4.90;99.90
17813;DHT22;9030;50.792;8.320;2023-12-20T14:22:32;4.90;99.90
17813;DHT22;9030;50.792;8.320;2023-12-20T14:24:59;4.90;99.90
17813;DHT22;9030;50.792;8.320;2023-12-20T14:27:26;4.90;99.90
17813;DHT22;9030;50.792;8.320;2023-12-20T14:29:54;4.80;99.90
17813;DHT22;9030;50.792;8.320;2023-12-20T14:32:20;4.80;99.90
17813;DHT22;9030;50.792;8.320;2023-12-20T14:34:48;4.80;99.90
17813;DHT22;9030;50.792;8.320;2023-12-20T14:37:15;4.80;99.90
17813;DHT22;9030;50.792;8.320;2023-12-20T14:39:42;4.80;99.90
17813;DHT22;9030;50.792;8.320;2023-12-20T14:42:09;4.80;99.90
17813;DHT22;9030;50.792;8.320;2023-12-20T14:44:38;4.80;99.90
17813;DHT22;9030;50.792;8.320;2023-12-20T14:47:06;4.90;99.90
17813;DHT22;9030;50.792;8.320;2023-12-20T14:49:32;4.80;99.90
17813;DHT22;9030;50.792;8.320;2023-12-20T14:52:00;4.80;99.90
17813;DHT22;9030;50.792;8.320;2023-12-20T14:54:27;4.90;99.90
17813;DHT22;9030;50.792;8.320;2023-12-20T14:56:54;4.80;99.90
17813;DHT22;9030;50.792;8.320;2023-12-20T14:59:21;4.80;99.90
17813;DHT22;9030;50.792;8.320;2023-12-20T15:01:48;4.90;99.90
17813;DHT22;9030;50.792;8.320;2023-12-20T15:04:15;4.90;99.90
17813;DHT22;9030;50.792;8.320;2023-12-20T15:06:41;4.80;99.90
17813;DHT22;9030;50.792;8.320;2023-12-20T15:09:10;4.80;99.90
17813;DHT22;9030;50.792;8.320;2023-12-20T15:11:37;4.90;99.90
17813;DHT22;9030;50.792;8.320;2023-12-20T15:14:03;4.80;99.90
17813;DHT22;9030;50.792;8.320;2023-12-20T15:16:30;4.90;99.90
17813;DHT22;9030;50.792;8.320;2023-12-20T15:18:57;4.90;99.90
17813;DHT22;9030;50.792;8.320;2023-12-20T15:21:24;4.90;99.90
17813;DHT22;9030;50.792;8.320;2023-12-20T15:23:57;4.90;99.90
17813;DHT22;9030;50.792;8.320;2023-12-20T15:26:32;4.90;99.90
17813;DHT22;9030;50.792;8.320;2023-12-20T15:28:58;4.90;99.90
17813;DHT22;9030;50.792;8.320;2023-12-20T15:31:26;4.90;99.90
17813;DHT22;9030;50.792;8.320;2023-12-20T15:33:53;4.90;99.90
17813;DHT22;9030;50.792;8.320;2023-12-20T15:36:19;5.00;99.90
17813;DHT22;9030;50.792;8.320;2023-12-20T15:38:46;4.90;99.90
17813;DHT22;9030;50.792;8.320;2023-12-20T15:41:17;4.90;99.90
17813;DHT22;9030;50.792;8.320;2023-12-20T15:43:45;4.90;99.90
17813;DHT22;9030;50.792;8.320;2023-12-20T15:46:12;4.90;99.90
17813;DHT22;9030;50.792;8.320;2023-12-20T15:48:38;4.90;99.90
17813;DHT22;9030;50.792;8.320;2023-12-20T15:51:05;4.90;99.90
17813;DHT22;9030;50.792;8.320;2023-12-20T15:53:32;4.90;99.90
17813;DHT22;9030;50.792;8.320;2023-12-20T15:55:59;4.90;99.90
17813;DHT22;9030;50.792;8.320;2023-12-20T15:58:26;4.90;99.90
17813;DHT22;9030;50.792;8.320;2023-12-20T16:00:54;4.90;99.90
17813;DHT22;9030;50.792;8.320;2023-12-20T16:03:21;4.90;99.90